Time,TemperatureF,DewpointF,PressureIn,WindDirection,WindDirectionDegrees,WindSpeedMPH,WindSpeedGustMPH,Humidity,HourlyPrecipIn,Conditions,Clouds,dailyrainin,SoftwareType,DateUTC
2013-06-08 00:03:00,55.4,51.3,29.65,ENE,74,0.0,0.0,86,0.16,,---,0.00,VWS V12.07,2013-06-08 04:03:00,
2013-06-08 00:06:00,55.4,51.3,29.65,ENE,73,0.0,0.0,86,0.16,,---,0.00,VWS V12.07,2013-06-08 04:06:00,
2013-06-08 00:09:00,55.4,51.3,29.65,ENE,74,0.0,0.0,86,0.16,,---,0.00,VWS V12.07,2013-06-08 04:09:00,
2013-06-08 00:12:00,55.4,51.3,29.65,ENE,74,0.0,0.0,86,0.16,,---,0.00,VWS V12.07,2013-06-08 04:12:00,
2013-06-08 00:18:00,55.4,51.3,29.65,ENE,74,0.0,0.0,86,0.12,,---,0.00,VWS V12.07,2013-06-08 04:18:00,
2013-06-08 00:21:00,55.4,51.3,29.65,ENE,74,0.0,0.0,86,0.12,,---,0.00,VWS V12.07,2013-06-08 04:21:00,
2013-06-08 00:26:00,55.4,51.3,29.65,ENE,73,0.0,0.0,86,0.12,,---,0.00,VWS V12.07,2013-06-08 04:26:00,
2013-06-08 00:33:00,55.2,51.4,29.65,ENE,74,0.0,0.0,87,0.08,,---,0.00,VWS V12.07,2013-06-08 04:33:00,
2013-06-08 00:39:00,55.2,51.4,29.62,ENE,73,0.0,2.7,87,0.08,,---,0.00,VWS V12.07,2013-06-08 04:39:00,
2013-06-08 00:46:00,55.2,51.4,29.62,ENE,73,0.0,0.0,87,0.08,,---,0.04,VWS V12.07,2013-06-08 04:46:00,
2013-06-08 00:52:00,55.2,51.4,29.62,ENE,73,0.0,0.0,87,0.08,,---,0.04,VWS V12.07,2013-06-08 04:52:00,
2013-06-08 00:58:00,55.2,51.4,29.62,WSW,254,0.0,3.1,87,0.08,,---,0.04,VWS V12.07,2013-06-08 04:58:00,
2013-06-08 01:03:00,55.2,51.4,29.62,WSW,253,0.0,0.0,87,0.04,,---,0.04,VWS V12.07,2013-06-08 05:03:00,
2013-06-08 01:09:00,55.2,51.4,29.62,ENE,60,0.0,3.1,87,0.08,,---,0.08,VWS V12.07,2013-06-08 05:09:00,
2013-06-08 01:15:00,55.2,51.4,29.62,ENE,60,0.0,0.0,87,0.08,,---,0.08,VWS V12.07,2013-06-08 05:15:00,
2013-06-08 01:21:00,55.2,51.4,29.62,East,96,0.0,2.7,87,0.08,,---,0.08,VWS V12.07,2013-06-08 05:21:00,
2013-06-08 01:27:00,55.0,51.2,29.62,East,92,0.0,2.7,87,0.16,,---,0.16,VWS V12.07,2013-06-08 05:27:00,
2013-06-08 01:34:00,55.0,51.6,29.62,East,89,0.0,3.6,88,0.20,,---,0.20,VWS V12.07,2013-06-08 05:34:00,
2013-06-08 01:41:00,55.0,51.6,29.59,WSW,246,0.0,3.6,88,0.20,,---,0.20,VWS V12.07,2013-06-08 05:41:00,
2013-06-08 01:47:00,55.0,51.6,29.59,East,101,0.0,0.0,88,0.16,,---,0.20,VWS V12.07,2013-06-08 05:47:00,
2013-06-08 01:55:00,55.0,51.6,29.59,East,101,0.0,2.7,88,0.16,,---,0.20,VWS V12.07,2013-06-08 05:55:00,
2013-06-08 02:02:00,54.9,51.4,29.59,East,100,0.0,0.0,88,0.16,,---,0.20,VWS V12.07,2013-06-08 06:02:00,
2013-06-08 02:08:00,54.9,51.4,29.59,East,100,0.0,0.0,88,0.16,,---,0.20,VWS V12.07,2013-06-08 06:08:00,
2013-06-08 02:14:00,54.9,51.4,29.59,East,100,0.0,2.2,88,0.16,,---,0.20,VWS V12.07,2013-06-08 06:14:00,
2013-06-08 02:20:00,55.0,51.6,29.59,WNW,284,0.0,5.4,88,0.16,,---,0.24,VWS V12.07,2013-06-08 06:20:00,
2013-06-08 02:26:00,55.0,51.6,29.59,WNW,283,0.0,5.4,88,0.20,,---,0.28,VWS V12.07,2013-06-08 06:26:00,
2013-06-08 02:32:00,55.0,51.6,29.59,North,357,0.0,0.0,88,0.08,,---,0.28,VWS V12.07,2013-06-08 06:32:00,
2013-06-08 02:38:00,54.9,51.4,29.59,East,93,0.0,0.0,88,0.12,,---,0.31,VWS V12.07,2013-06-08 06:38:00,
2013-06-08 02:44:00,54.9,51.4,29.56,East,93,0.0,0.0,88,0.12,,---,0.31,VWS V12.07,2013-06-08 06:44:00,
2013-06-08 02:50:00,54.9,51.4,29.56,East,82,0.0,0.0,88,0.12,,---,0.31,VWS V12.07,2013-06-08 06:50:00,
2013-06-08 02:57:00,54.9,51.7,29.53,East,82,0.0,0.0,89,0.12,,---,0.31,VWS V12.07,2013-06-08 06:57:00,
2013-06-08 03:04:00,55.0,51.9,29.53,East,82,0.0,2.2,89,0.12,,---,0.31,VWS V12.07,2013-06-08 07:04:00,
2013-06-08 03:10:00,55.0,51.9,29.53,ENE,76,0.0,2.2,89,0.16,,---,0.35,VWS V12.07,2013-06-08 07:10:00,
2013-06-08 03:17:00,55.2,52.0,29.53,East,82,0.0,2.2,89,0.16,,---,0.35,VWS V12.07,2013-06-08 07:17:00,
2013-06-08 03:23:00,55.2,52.0,29.53,East,82,0.0,2.2,89,0.16,,---,0.35,VWS V12.07,2013-06-08 07:23:00,
2013-06-08 03:29:00,55.2,52.0,29.53,East,82,0.0,2.2,89,0.16,,---,0.35,VWS V12.07,2013-06-08 07:29:00,
2013-06-08 03:35:00,55.2,52.0,29.53,East,82,0.0,0.0,89,0.08,,---,0.35,VWS V12.07,2013-06-08 07:35:00,
2013-06-08 03:41:00,55.2,52.0,29.53,East,82,0.0,0.0,89,0.08,,---,0.35,VWS V12.07,2013-06-08 07:41:00,
2013-06-08 03:47:00,55.4,52.2,29.53,East,83,0.0,0.0,89,0.04,,---,0.35,VWS V12.07,2013-06-08 07:47:00,
2013-06-08 03:54:00,55.4,52.2,29.50,East,82,0.0,0.0,89,0.04,,---,0.35,VWS V12.07,2013-06-08 07:54:00,
2013-06-08 04:00:00,55.4,52.2,29.50,East,82,0.0,0.0,89,0.04,,---,0.35,VWS V12.07,2013-06-08 08:00:00,
2013-06-08 04:07:00,55.2,52.0,29.50,East,82,0.0,0.0,89,0.04,,---,0.35,VWS V12.07,2013-06-08 08:07:00,
2013-06-08 04:13:00,55.4,52.2,29.50,SE,125,0.0,3.6,89,0.08,,---,0.39,VWS V12.07,2013-06-08 08:13:00,
2013-06-08 04:19:00,55.4,52.2,29.50,SE,124,0.0,2.2,89,0.04,,---,0.39,VWS V12.07,2013-06-08 08:19:00,
2013-06-08 04:25:00,55.4,52.2,29.50,East,100,0.0,2.7,89,0.04,,---,0.39,VWS V12.07,2013-06-08 08:25:00,
2013-06-08 04:31:00,55.2,52.0,29.50,East,100,0.0,0.0,89,0.04,,---,0.39,VWS V12.07,2013-06-08 08:31:00,
2013-06-08 04:37:00,55.2,52.0,29.50,East,90,0.0,3.1,89,0.04,,---,0.39,VWS V12.07,2013-06-08 08:37:00,
2013-06-08 04:43:00,55.2,52.0,29.50,East,91,0.0,3.1,89,0.08,,---,0.43,VWS V12.07,2013-06-08 08:43:00,
2013-06-08 04:49:00,55.2,52.0,29.50,East,88,0.0,3.6,89,0.08,,---,0.43,VWS V12.07,2013-06-08 08:49:00,
2013-06-08 04:55:00,55.4,52.2,29.47,East,88,0.0,3.6,89,0.08,,---,0.43,VWS V12.07,2013-06-08 08:55:00,
2013-06-08 05:01:00,55.4,52.2,29.47,East,88,0.0,0.0,89,0.08,,---,0.43,VWS V12.07,2013-06-08 09:01:00,
2013-06-08 05:09:00,55.4,52.2,29.47,East,87,0.0,3.6,89,0.08,,---,0.43,VWS V12.07,2013-06-08 09:09:00,
2013-06-08 05:15:00,55.4,52.2,29.47,East,87,0.0,0.0,89,0.08,,---,0.43,VWS V12.07,2013-06-08 09:15:00,
2013-06-08 05:21:00,55.4,52.2,29.47,East,82,0.0,3.1,89,0.04,,---,0.43,VWS V12.07,2013-06-08 09:21:00,
2013-06-08 05:27:00,55.4,52.2,29.47,SE,131,0.0,3.1,89,0.04,,---,0.43,VWS V12.07,2013-06-08 09:27:00,
2013-06-08 05:33:00,55.2,52.3,29.47,SE,132,0.0,0.0,90,0.04,,---,0.43,VWS V12.07,2013-06-08 09:33:00,
2013-06-08 05:39:00,55.2,52.3,29.47,ENE,60,0.0,2.7,90,0.04,,---,0.43,VWS V12.07,2013-06-08 09:39:00,
2013-06-08 05:45:00,55.2,52.3,29.47,East,81,0.0,0.0,90,0.04,,---,0.43,VWS V12.07,2013-06-08 09:45:00,
2013-06-08 05:50:00,55.2,52.3,29.47,East,81,0.0,2.2,90,0.00,,---,0.43,VWS V12.07,2013-06-08 09:50:00,
2013-06-08 05:56:00,55.2,52.3,29.47,SE,131,0.0,2.2,90,0.00,,---,0.43,VWS V12.07,2013-06-08 09:56:00,
2013-06-08 06:02:00,55.2,52.3,29.47,ENE,63,0.0,3.1,90,0.00,,---,0.43,VWS V12.07,2013-06-08 10:02:00,
2013-06-08 06:08:00,55.2,52.3,29.47,ENE,68,0.0,3.1,90,0.00,,---,0.43,VWS V12.07,2013-06-08 10:08:00,
2013-06-08 06:14:00,55.2,52.3,29.44,ENE,62,0.0,3.1,90,0.00,,---,0.43,VWS V12.07,2013-06-08 10:14:00,
2013-06-08 06:20:00,55.2,52.3,29.44,ENE,72,0.0,3.1,90,0.00,,---,0.43,VWS V12.07,2013-06-08 10:20:00,
2013-06-08 06:26:00,55.2,52.3,29.44,North,5,0.0,3.1,90,0.00,,---,0.43,VWS V12.07,2013-06-08 10:26:00,
2013-06-08 06:32:00,55.2,52.3,29.44,East,85,0.0,3.1,90,0.00,,---,0.43,VWS V12.07,2013-06-08 10:32:00,
2013-06-08 06:38:00,55.2,52.3,29.44,WSW,257,0.0,3.1,90,0.00,,---,0.43,VWS V12.07,2013-06-08 10:38:00,
2013-06-08 06:44:00,55.4,52.5,29.44,SSE,167,0.0,3.1,90,0.00,,---,0.43,VWS V12.07,2013-06-08 10:44:00,
2013-06-08 06:49:00,55.4,52.5,29.44,WNW,283,0.0,3.6,90,0.00,,---,0.43,VWS V12.07,2013-06-08 10:49:00,
2013-06-08 06:56:00,55.6,52.7,29.44,WNW,284,0.0,3.6,90,0.00,,---,0.43,VWS V12.07,2013-06-08 10:56:00,
2013-06-08 07:02:00,55.6,52.7,29.44,NW,321,0.0,3.1,90,0.00,,---,0.43,VWS V12.07,2013-06-08 11:02:00,
2013-06-08 07:08:00,55.9,53.0,29.44,SSE,152,0.0,3.1,90,0.00,,---,0.43,VWS V12.07,2013-06-08 11:08:00,
2013-06-08 07:14:00,56.1,53.2,29.44,NE,45,0.0,3.6,90,0.00,,---,0.43,VWS V12.07,2013-06-08 11:14:00,
2013-06-08 07:20:00,56.1,53.2,29.44,WNW,302,0.0,2.2,90,0.00,,---,0.43,VWS V12.07,2013-06-08 11:20:00,
2013-06-08 07:26:00,56.1,53.2,29.44,SE,124,2.7,3.1,90,0.00,,---,0.43,VWS V12.07,2013-06-08 11:26:00,
2013-06-08 07:32:00,56.3,53.4,29.44,SE,124,0.0,0.0,90,0.00,,---,0.43,VWS V12.07,2013-06-08 11:32:00,
2013-06-08 07:40:00,56.5,53.9,29.47,NNE,22,0.0,6.3,91,0.00,,---,0.43,VWS V12.07,2013-06-08 11:40:00,
2013-06-08 07:46:00,56.5,53.6,29.47,NNW,339,0.0,2.7,90,0.00,,---,0.43,VWS V12.07,2013-06-08 11:46:00,
2013-06-08 07:52:00,56.7,54.1,29.47,SSE,167,0.0,2.7,91,0.00,,---,0.43,VWS V12.07,2013-06-08 11:52:00,
2013-06-08 07:58:00,56.8,54.2,29.47,SE,126,2.7,4.0,91,0.00,,---,0.43,VWS V12.07,2013-06-08 11:58:00,
2013-06-08 08:04:00,57.2,54.3,29.47,West,261,4.0,5.4,90,0.00,,---,0.43,VWS V12.07,2013-06-08 12:04:00,
2013-06-08 08:10:00,57.2,54.3,29.47,NW,316,0.0,5.4,90,0.00,,---,0.43,VWS V12.07,2013-06-08 12:10:00,
2013-06-08 08:17:00,57.4,54.5,29.47,NW,313,4.0,4.0,90,0.00,,---,0.43,VWS V12.07,2013-06-08 12:17:00,
2013-06-08 08:24:00,57.4,54.5,29.47,West,280,3.6,4.9,90,0.00,,---,0.43,VWS V12.07,2013-06-08 12:24:00,
2013-06-08 08:30:00,57.4,54.5,29.47,WNW,297,3.1,3.1,90,0.00,,---,0.43,VWS V12.07,2013-06-08 12:30:00,
2013-06-08 08:37:00,57.6,55.0,29.47,WNW,295,4.9,6.7,91,0.00,,---,0.43,VWS V12.07,2013-06-08 12:37:00,
2013-06-08 08:44:00,57.7,55.1,29.47,East,95,0.0,8.1,91,0.00,,---,0.43,VWS V12.07,2013-06-08 12:44:00,
2013-06-08 08:50:00,57.7,55.1,29.47,WNW,296,0.0,5.8,91,0.00,,---,0.43,VWS V12.07,2013-06-08 12:50:00,
2013-06-08 08:57:00,57.9,55.3,29.50,WNW,282,0.0,5.8,91,0.00,,---,0.43,VWS V12.07,2013-06-08 12:57:00,
2013-06-08 09:04:00,57.9,55.3,29.50,NW,311,0.0,6.3,91,0.00,,---,0.43,VWS V12.07,2013-06-08 13:04:00,
2013-06-08 09:12:00,57.9,55.3,29.53,NW,307,2.2,6.3,91,0.00,,---,0.43,VWS V12.07,2013-06-08 13:12:00,
2013-06-08 09:18:00,57.9,55.3,29.53,NE,39,0.0,4.0,91,0.00,,---,0.43,VWS V12.07,2013-06-08 13:18:00,
2013-06-08 09:25:00,58.1,55.5,29.53,West,264,0.0,4.0,91,0.00,,---,0.43,VWS V12.07,2013-06-08 13:25:00,
2013-06-08 09:32:00,58.5,55.8,29.53,NNW,342,2.7,3.6,91,0.00,,---,0.43,VWS V12.07,2013-06-08 13:32:00,
2013-06-08 09:38:00,58.8,56.2,29.53,West,271,0.0,5.8,91,0.00,,---,0.43,VWS V12.07,2013-06-08 13:38:00,
2013-06-08 09:45:00,59.2,56.6,29.56,NW,304,2.2,2.2,91,0.00,,---,0.43,VWS V12.07,2013-06-08 13:45:00,
2013-06-08 09:52:00,59.4,56.7,29.56,SW,231,4.0,5.4,91,0.00,,---,0.43,VWS V12.07,2013-06-08 13:52:00,
2013-06-08 09:58:00,59.5,56.9,29.56,NW,304,3.1,5.4,91,0.00,,---,0.43,VWS V12.07,2013-06-08 13:58:00,
2013-06-08 10:04:00,59.9,57.3,29.56,ESE,107,0.0,6.7,91,0.00,,---,0.43,VWS V12.07,2013-06-08 14:04:00,
2013-06-08 10:10:00,60.1,57.5,29.56,NW,313,2.7,6.7,91,0.00,,---,0.43,VWS V12.07,2013-06-08 14:10:00,
2013-06-08 10:17:00,60.3,57.6,29.56,NW,313,2.7,4.9,91,0.00,,---,0.43,VWS V12.07,2013-06-08 14:17:00,
2013-06-08 10:24:00,60.8,58.2,29.56,NW,311,2.7,7.6,91,0.00,,---,0.43,VWS V12.07,2013-06-08 14:24:00,
2013-06-08 10:31:00,61.2,58.5,29.56,WSW,256,3.1,3.6,91,0.00,,---,0.43,VWS V12.07,2013-06-08 14:31:00,
2013-06-08 10:39:00,61.3,58.7,29.56,West,268,0.0,6.3,91,0.00,,---,0.43,VWS V12.07,2013-06-08 14:39:00,
2013-06-08 10:45:00,61.5,58.9,29.56,WSW,247,3.1,5.8,91,0.00,,---,0.43,VWS V12.07,2013-06-08 14:45:00,
2013-06-08 10:52:00,61.7,59.0,29.56,South,182,2.7,6.3,91,0.00,,---,0.43,VWS V12.07,2013-06-08 14:52:00,
2013-06-08 10:59:00,62.1,59.4,29.59,WSW,254,5.4,6.3,91,0.00,,---,0.43,VWS V12.07,2013-06-08 14:59:00,
2013-06-08 11:06:00,62.4,59.8,29.59,NNW,331,2.7,4.9,91,0.00,,---,0.43,VWS V12.07,2013-06-08 15:06:00,
2013-06-08 11:13:00,63.1,60.5,29.59,NW,323,6.7,7.6,91,0.00,,---,0.43,VWS V12.07,2013-06-08 15:13:00,
2013-06-08 11:20:00,63.5,60.8,29.59,WNW,283,0.0,7.2,91,0.00,,---,0.43,VWS V12.07,2013-06-08 15:20:00,
2013-06-08 11:27:00,63.9,61.2,29.62,NW,317,2.7,7.2,91,0.00,,---,0.43,VWS V12.07,2013-06-08 15:27:00,
2013-06-08 11:34:00,64.4,61.4,29.62,West,268,2.7,8.3,90,0.00,,---,0.43,VWS V12.07,2013-06-08 15:34:00,
2013-06-08 11:39:00,64.6,60.3,29.62,NW,312,3.1,8.3,86,0.00,,---,0.43,VWS V12.07,2013-06-08 15:39:00,
2013-06-08 11:46:00,65.5,58.8,29.62,NW,311,4.0,4.0,79,0.00,,---,0.43,VWS V12.07,2013-06-08 15:46:00,
2013-06-08 11:53:00,65.8,57.0,29.62,NW,312,5.4,8.1,73,0.00,,---,0.43,VWS V12.07,2013-06-08 15:53:00,
2013-06-08 12:05:00,66.9,55.2,29.62,WNW,286,3.1,6.3,66,0.00,,---,0.43,VWS V12.07,2013-06-08 16:05:00,
2013-06-08 12:12:00,67.5,48.2,29.62,WNW,283,2.7,6.3,50,0.00,,---,0.43,VWS V12.07,2013-06-08 16:12:00,
2013-06-08 12:20:00,68.4,46.8,29.62,WNW,288,2.2,5.4,46,0.00,,---,0.43,VWS V12.07,2013-06-08 16:20:00,
2013-06-08 12:28:00,69.1,46.3,29.62,NNW,343,2.2,6.3,44,0.00,,---,0.43,VWS V12.07,2013-06-08 16:28:00,
2013-06-08 12:34:00,70.0,47.1,29.62,West,264,10.5,10.5,44,0.00,,---,0.43,VWS V12.07,2013-06-08 16:34:00,
2013-06-08 12:41:00,70.7,43.9,29.62,West,265,3.6,10.5,38,0.00,,---,0.43,VWS V12.07,2013-06-08 16:41:00,
2013-06-08 12:49:00,70.9,42.6,29.62,SSE,168,4.0,7.6,36,0.00,,---,0.43,VWS V12.07,2013-06-08 16:49:00,
2013-06-08 12:57:00,71.8,44.1,29.65,West,275,4.0,7.6,37,0.00,,---,0.43,VWS V12.07,2013-06-08 16:57:00,
2013-06-08 13:05:00,72.3,43.2,29.65,West,266,4.0,6.3,35,0.00,,---,0.43,VWS V12.07,2013-06-08 17:05:00,
2013-06-08 13:13:00,72.5,41.8,29.65,NNE,32,4.0,8.1,33,0.00,,---,0.43,VWS V12.07,2013-06-08 17:13:00,
2013-06-08 13:21:00,72.9,41.3,29.65,SSW,205,5.4,5.8,32,0.00,,---,0.43,VWS V12.07,2013-06-08 17:21:00,
2013-06-08 13:29:00,73.6,41.1,29.65,NW,320,0.0,5.8,31,0.00,,---,0.43,VWS V12.07,2013-06-08 17:29:00,
2013-06-08 13:37:00,73.8,41.3,29.65,West,260,3.6,7.6,31,0.00,,---,0.43,VWS V12.07,2013-06-08 17:37:00,
2013-06-08 13:45:00,73.9,42.2,29.65,West,273,5.4,6.7,32,0.00,,---,0.43,VWS V12.07,2013-06-08 17:45:00,
2013-06-08 13:52:00,74.7,42.0,29.65,West,264,4.0,8.1,31,0.00,,---,0.43,VWS V12.07,2013-06-08 17:52:00,
2013-06-08 14:00:00,75.0,40.6,29.65,NW,310,5.8,5.8,29,0.00,,---,0.43,VWS V12.07,2013-06-08 18:00:00,
2013-06-08 14:08:00,75.6,40.2,29.65,NW,324,4.9,8.7,28,0.00,,---,0.43,VWS V12.07,2013-06-08 18:08:00,
2013-06-08 14:15:00,76.1,40.7,29.65,West,268,4.0,5.4,28,0.00,,---,0.43,VWS V12.07,2013-06-08 18:15:00,
2013-06-08 14:23:00,76.3,41.7,29.65,SSW,192,2.7,8.1,29,0.00,,---,0.43,VWS V12.07,2013-06-08 18:23:00,
2013-06-08 14:30:00,76.8,42.2,29.65,NW,304,3.1,3.1,29,0.00,,---,0.43,VWS V12.07,2013-06-08 18:30:00,
2013-06-08 14:37:00,76.6,38.2,29.65,NNW,330,3.6,8.7,25,0.00,,---,0.43,VWS V12.07,2013-06-08 18:37:00,
2013-06-08 14:44:00,76.8,40.3,29.65,West,281,0.0,9.6,27,0.00,,---,0.43,VWS V12.07,2013-06-08 18:44:00,
2013-06-08 14:52:00,77.2,38.7,29.65,WSW,254,0.0,8.1,25,0.00,,---,0.43,VWS V12.07,2013-06-08 18:52:00,
2013-06-08 15:00:00,77.5,39.0,29.65,WNW,303,4.0,6.3,25,0.00,,---,0.43,VWS V12.07,2013-06-08 19:00:00,
2013-06-08 15:08:00,78.3,38.5,29.65,WNW,289,5.8,8.7,24,0.00,,---,0.43,VWS V12.07,2013-06-08 19:08:00,
2013-06-08 15:16:00,78.6,38.8,29.65,West,273,6.3,6.3,24,0.00,,---,0.43,VWS V12.07,2013-06-08 19:16:00,
2013-06-08 15:24:00,78.3,38.5,29.65,West,278,2.2,6.3,24,0.00,,---,0.43,VWS V12.07,2013-06-08 19:24:00,
2013-06-08 15:31:00,78.6,38.8,29.65,WNW,282,3.1,6.3,24,0.00,,---,0.43,VWS V12.07,2013-06-08 19:31:00,
2013-06-08 15:38:00,78.3,38.5,29.68,West,266,3.1,8.1,24,0.00,,---,0.43,VWS V12.07,2013-06-08 19:38:00,
2013-06-08 15:45:00,77.7,38.1,29.68,NW,315,2.7,4.9,24,0.00,,---,0.43,VWS V12.07,2013-06-08 19:45:00,
2013-06-08 15:52:00,77.2,37.6,29.68,WNW,299,5.8,9.6,24,0.00,,---,0.43,VWS V12.07,2013-06-08 19:52:00,
2013-06-08 15:59:00,77.0,37.5,29.68,NW,313,2.7,11.0,24,0.00,,---,0.43,VWS V12.07,2013-06-08 19:59:00,
2013-06-08 16:08:00,77.4,38.8,29.68,WNW,282,4.0,8.1,25,0.00,,---,0.43,VWS V12.07,2013-06-08 20:08:00,
2013-06-08 16:16:00,78.4,38.7,29.68,WNW,294,4.0,6.3,24,0.00,,---,0.43,VWS V12.07,2013-06-08 20:16:00,
2013-06-08 16:24:00,78.4,37.6,29.68,West,273,2.2,8.1,23,0.00,,---,0.43,VWS V12.07,2013-06-08 20:24:00,
2013-06-08 16:31:00,78.3,37.5,29.68,West,263,5.8,5.8,23,0.00,,---,0.43,VWS V12.07,2013-06-08 20:31:00,
2013-06-08 16:39:00,78.1,37.3,29.68,WNW,296,3.6,8.7,23,0.00,,---,0.43,VWS V12.07,2013-06-08 20:39:00,
2013-06-08 16:45:00,78.6,38.8,29.68,West,272,3.6,5.8,24,0.00,,---,0.43,VWS V12.07,2013-06-08 20:45:00,
2013-06-08 16:53:00,78.8,37.9,29.68,West,274,5.4,5.8,23,0.00,,---,0.43,VWS V12.07,2013-06-08 20:53:00,
2013-06-08 17:02:00,78.1,37.3,29.68,West,267,4.0,6.7,23,0.00,,---,0.43,VWS V12.07,2013-06-08 21:02:00,
2013-06-08 17:09:00,77.7,37.0,29.68,West,261,5.8,8.1,23,0.00,,---,0.43,VWS V12.07,2013-06-08 21:09:00,
2013-06-08 17:17:00,77.4,36.7,29.68,WNW,300,4.9,7.6,23,0.00,,---,0.43,VWS V12.07,2013-06-08 21:17:00,
2013-06-08 17:25:00,77.4,36.7,29.68,WNW,293,0.0,8.1,23,0.00,,---,0.43,VWS V12.07,2013-06-08 21:25:00,
2013-06-08 17:32:00,77.2,36.5,29.68,WNW,287,0.0,7.2,23,0.00,,---,0.43,VWS V12.07,2013-06-08 21:32:00,
2013-06-08 17:40:00,77.4,37.8,29.71,NNW,335,0.0,7.2,24,0.00,,---,0.43,VWS V12.07,2013-06-08 21:40:00,
2013-06-08 17:48:00,77.4,36.7,29.71,WNW,299,3.6,5.4,23,0.00,,---,0.43,VWS V12.07,2013-06-08 21:48:00,
2013-06-08 17:55:00,76.8,36.2,29.71,NW,317,3.1,6.3,23,0.00,,---,0.43,VWS V12.07,2013-06-08 21:55:00,
2013-06-08 18:03:00,76.5,36.0,29.71,WNW,286,4.0,6.3,23,0.00,,---,0.43,VWS V12.07,2013-06-08 22:03:00,
2013-06-08 18:09:00,76.1,35.7,29.71,WNW,284,3.1,6.3,23,0.00,,---,0.43,VWS V12.07,2013-06-08 22:09:00,
2013-06-08 18:17:00,75.9,36.6,29.71,West,281,3.6,3.6,24,0.00,,---,0.43,VWS V12.07,2013-06-08 22:17:00,
2013-06-08 18:25:00,75.7,36.4,29.71,NW,312,2.7,7.6,24,0.00,,---,0.43,VWS V12.07,2013-06-08 22:25:00,
2013-06-08 18:30:00,75.6,36.3,29.71,WNW,300,0.0,3.1,24,0.00,,---,0.43,VWS V12.07,2013-06-08 22:30:00,
2013-06-08 18:38:00,75.4,36.1,29.71,WNW,295,4.0,8.1,24,0.00,,---,0.43,VWS V12.07,2013-06-08 22:38:00,
2013-06-08 18:46:00,75.0,36.8,29.74,WNW,287,0.0,4.9,25,0.00,,---,0.43,VWS V12.07,2013-06-08 22:46:00,
2013-06-08 18:54:00,74.8,36.7,29.74,WNW,293,2.7,7.6,25,0.00,,---,0.43,VWS V12.07,2013-06-08 22:54:00,
2013-06-08 19:03:00,74.5,35.4,29.74,WNW,301,2.7,8.3,24,0.00,,---,0.43,VWS V12.07,2013-06-08 23:03:00,
2013-06-08 19:10:00,73.9,34.9,29.74,NW,309,3.6,8.3,24,0.00,,---,0.43,VWS V12.07,2013-06-08 23:10:00,
2013-06-08 19:18:00,73.6,34.6,29.74,West,275,4.0,5.4,24,0.00,,---,0.43,VWS V12.07,2013-06-08 23:18:00,
2013-06-08 19:26:00,73.2,34.3,29.77,NW,315,0.0,5.4,24,0.00,,---,0.43,VWS V12.07,2013-06-08 23:26:00,
2013-06-08 19:34:00,72.9,34.0,29.77,WSW,258,2.7,6.3,24,0.00,,---,0.43,VWS V12.07,2013-06-08 23:34:00,
2013-06-08 19:41:00,72.7,33.8,29.77,NNW,344,0.0,6.3,24,0.00,,---,0.43,VWS V12.07,2013-06-08 23:41:00,
2013-06-08 19:48:00,72.3,34.6,29.77,West,262,0.0,2.7,25,0.00,,---,0.43,VWS V12.07,2013-06-08 23:48:00,
2013-06-08 19:56:00,72.1,34.4,29.77,WSW,249,2.7,4.0,25,0.00,,---,0.43,VWS V12.07,2013-06-08 23:56:00,
2013-06-08 20:02:00,71.8,34.1,29.77,WSW,250,0.0,3.1,25,0.00,,---,0.43,VWS V12.07,2013-06-09 00:02:00,
2013-06-08 20:09:00,71.6,34.0,29.77,WSW,249,2.7,3.1,25,0.00,,---,0.43,VWS V12.07,2013-06-09 00:09:00,
2013-06-08 20:15:00,71.4,33.8,29.77,WNW,299,3.1,4.9,25,0.00,,---,0.43,VWS V12.07,2013-06-09 00:15:00,
2013-06-08 20:22:00,71.1,33.5,29.77,WNW,299,0.0,4.9,25,0.00,,---,0.43,VWS V12.07,2013-06-09 00:22:00,
2013-06-08 20:30:00,70.7,34.2,29.77,NW,306,0.0,0.0,26,0.00,,---,0.43,VWS V12.07,2013-06-09 00:30:00,
2013-06-08 20:37:00,70.5,34.0,29.77,NW,307,2.7,4.0,26,0.00,,---,0.43,VWS V12.07,2013-06-09 00:37:00,
2013-06-08 20:44:00,70.2,33.7,29.77,WNW,297,2.7,4.9,26,0.00,,---,0.43,VWS V12.07,2013-06-09 00:44:00,
2013-06-08 20:52:00,69.8,33.4,29.77,WNW,297,4.5,4.5,26,0.00,,---,0.43,VWS V12.07,2013-06-09 00:52:00,
2013-06-08 20:59:00,69.4,34.0,29.80,WNW,288,0.0,4.5,27,0.00,,---,0.43,VWS V12.07,2013-06-09 00:59:00,
2013-06-08 21:07:00,69.3,34.8,29.80,WNW,288,0.0,4.0,28,0.00,,---,0.43,VWS V12.07,2013-06-09 01:07:00,
2013-06-08 21:14:00,69.1,34.6,29.80,WNW,289,4.0,4.0,28,0.00,,---,0.43,VWS V12.07,2013-06-09 01:14:00,
2013-06-08 21:22:00,68.7,35.2,29.80,WNW,288,2.7,3.6,29,0.00,,---,0.43,VWS V12.07,2013-06-09 01:22:00,
2013-06-08 21:29:00,68.5,35.9,29.80,WNW,288,0.0,3.6,30,0.00,,---,0.43,VWS V12.07,2013-06-09 01:29:00,
2013-06-08 21:36:00,68.4,36.6,29.80,WNW,288,3.1,5.4,31,0.00,,---,0.43,VWS V12.07,2013-06-09 01:36:00,
2013-06-08 21:44:00,68.2,37.2,29.80,WNW,290,0.0,5.4,32,0.00,,---,0.43,VWS V12.07,2013-06-09 01:44:00,
2013-06-08 21:51:00,68.0,37.1,29.80,WNW,290,0.0,0.0,32,0.00,,---,0.43,VWS V12.07,2013-06-09 01:51:00,
2013-06-08 21:59:00,67.8,37.7,29.80,WNW,290,0.0,3.1,33,0.00,,---,0.43,VWS V12.07,2013-06-09 01:59:00,
2013-06-08 22:07:00,67.6,37.5,29.80,WNW,290,0.0,0.0,33,0.00,,---,0.43,VWS V12.07,2013-06-09 02:07:00,
2013-06-08 22:14:00,67.1,37.1,29.80,WNW,290,0.0,0.0,33,0.00,,---,0.43,VWS V12.07,2013-06-09 02:14:00,
2013-06-08 22:20:00,66.7,36.8,29.80,WNW,290,0.0,0.0,33,0.00,,---,0.43,VWS V12.07,2013-06-09 02:20:00,
2013-06-08 22:28:00,66.6,37.3,29.83,WNW,290,0.0,0.0,34,0.00,,---,0.43,VWS V12.07,2013-06-09 02:28:00,
2013-06-08 22:35:00,66.4,37.2,29.83,WNW,290,0.0,0.0,34,0.00,,---,0.43,VWS V12.07,2013-06-09 02:35:00,
2013-06-08 22:42:00,66.2,37.0,29.83,WNW,289,0.0,0.0,34,0.00,,---,0.43,VWS V12.07,2013-06-09 02:42:00,
2013-06-08 22:49:00,66.2,37.8,29.83,WNW,290,0.0,0.0,35,0.00,,---,0.43,VWS V12.07,2013-06-09 02:49:00,
2013-06-08 22:56:00,66.2,37.8,29.83,WNW,290,0.0,2.7,35,0.00,,---,0.43,VWS V12.07,2013-06-09 02:56:00,
2013-06-08 23:04:00,66.0,38.3,29.83,WNW,289,2.2,4.0,36,0.00,,---,0.43,VWS V12.07,2013-06-09 03:04:00,
2013-06-08 23:10:00,66.0,38.3,29.83,WNW,289,0.0,4.0,36,0.00,,---,0.43,VWS V12.07,2013-06-09 03:10:00,
2013-06-08 23:18:00,65.8,38.2,29.83,WNW,290,0.0,0.0,36,0.00,,---,0.43,VWS V12.07,2013-06-09 03:18:00,
2013-06-08 23:25:00,65.8,38.9,29.83,WNW,290,0.0,0.0,37,0.00,,---,0.43,VWS V12.07,2013-06-09 03:25:00,
2013-06-08 23:30:00,65.7,38.7,29.83,WNW,290,0.0,0.0,37,0.00,,---,0.43,VWS V12.07,2013-06-09 03:30:00,
2013-06-08 23:38:00,65.5,38.5,29.83,WNW,290,0.0,0.0,37,0.00,,---,0.43,VWS V12.07,2013-06-09 03:38:00,
2013-06-08 23:45:00,65.5,39.2,29.83,WNW,289,0.0,0.0,38,0.00,,---,0.43,VWS V12.07,2013-06-09 03:45:00,
2013-06-08 23:51:00,65.1,38.9,29.83,WNW,290,0.0,0.0,38,0.00,,---,0.43,VWS V12.07,2013-06-09 03:51:00,
2013-06-08 23:57:00,64.8,38.6,29.83,WNW,290,0.0,0.0,38,0.00,,---,0.43,VWS V12.07,2013-06-09 03:57:00,